createdAt,value
2019-01-23T00:02:15.337Z,-2.27
2019-01-23T00:05:22.553Z,-2.30
2019-01-23T00:08:26.598Z,-2.24
2019-01-23T00:11:30.830Z,-2.28
2019-01-23T00:14:34.790Z,-2.29
2019-01-23T00:17:38.743Z,-2.34
2019-01-23T00:20:42.793Z,-2.40
2019-01-23T00:23:46.674Z,-2.36
2019-01-23T00:26:50.687Z,-2.45
2019-01-23T00:29:54.885Z,-2.50
2019-01-23T00:32:58.834Z,-2.47
2019-01-23T00:36:05.715Z,-2.50
2019-01-23T00:39:09.743Z,-2.52
2019-01-23T00:42:13.720Z,-2.57
2019-01-23T00:45:17.868Z,-2.61
2019-01-23T00:48:21.811Z,-2.59
2019-01-23T00:51:26.499Z,-2.59
2019-01-23T00:54:30.640Z,-2.63
2019-01-23T00:57:37.603Z,-2.61
2019-01-23T01:00:41.819Z,-2.60
2019-01-23T01:03:46.097Z,-2.66
2019-01-23T01:06:50.045Z,-2.64
2019-01-23T01:09:54.707Z,-2.64
2019-01-23T01:12:58.723Z,-2.66
2019-01-23T01:16:02.750Z,-2.71
2019-01-23T01:19:06.698Z,-2.75
2019-01-23T01:22:10.735Z,-2.77
2019-01-23T01:25:16.570Z,-2.77
2019-01-23T01:28:21.439Z,-2.80
2019-01-23T01:31:25.314Z,-2.80
2019-01-23T01:34:29.339Z,-2.83
2019-01-23T01:37:33.304Z,-2.85
2019-01-23T01:40:37.182Z,-2.89
2019-01-23T01:43:41.164Z,-2.92
2019-01-23T01:46:45.025Z,-2.86
2019-01-23T01:49:48.902Z,-2.83
2019-01-23T01:52:52.907Z,-2.85
2019-01-23T01:55:56.958Z,-2.84
2019-01-23T01:59:02.848Z,-2.90
2019-01-23T02:02:06.584Z,-2.89
2019-01-23T02:05:13.703Z,-2.92
2019-01-23T02:08:17.581Z,-2.96
2019-01-23T02:11:21.524Z,-2.98
2019-01-23T02:14:25.539Z,-2.99
2019-01-23T02:17:29.560Z,-2.99
2019-01-23T02:20:33.493Z,-2.98
2019-01-23T02:23:37.447Z,-2.98
2019-01-23T02:26:42.860Z,-2.96
2019-01-23T02:29:46.804Z,-2.99
2019-01-23T02:32:50.824Z,-2.97
2019-01-23T02:35:54.771Z,-3.01
2019-01-23T02:38:58.740Z,-3.01
2019-01-23T02:42:02.610Z,-3.03
2019-01-23T02:45:07.095Z,-3.04
2019-01-23T02:48:11.129Z,-3.05
2019-01-23T02:51:17.136Z,-3.03
2019-01-23T02:54:21.015Z,-3.04
2019-01-23T02:57:25.318Z,-3.02
2019-01-23T03:00:30.726Z,-3.04
2019-01-23T03:03:34.807Z,-3.05
2019-01-23T03:06:38.843Z,-3.03
2019-01-23T03:09:42.784Z,-3.00
2019-01-23T03:12:46.891Z,-3.03
2019-01-23T03:15:50.766Z,-3.04
2019-01-23T03:18:54.773Z,-3.05
2019-01-23T03:21:58.975Z,-3.05
2019-01-23T03:25:02.913Z,-3.06
2019-01-23T03:28:07.136Z,-3.01
2019-01-23T03:31:11.015Z,-3.06
2019-01-23T03:34:14.903Z,-2.97
2019-01-23T03:37:18.966Z,-3.10
2019-01-23T03:40:25.728Z,-3.13
2019-01-23T03:43:29.759Z,-3.10
2019-01-23T03:46:33.812Z,-3.07
2019-01-23T03:49:37.760Z,-3.05
2019-01-23T03:52:41.633Z,-3.07
2019-01-23T03:55:45.652Z,-3.13
2019-01-23T03:58:49.893Z,-3.08
2019-01-23T04:01:58.464Z,-3.11
2019-01-23T04:05:02.402Z,-3.11
2019-01-23T04:08:06.446Z,-3.12
2019-01-23T04:11:10.485Z,-3.08
2019-01-23T04:14:14.447Z,-3.10
2019-01-23T04:17:18.323Z,-3.07
2019-01-23T04:20:23.251Z,-3.15
2019-01-23T04:23:30.355Z,-3.17
2019-01-23T04:26:35.689Z,-3.10
2019-01-23T04:29:40.491Z,-3.23
2019-01-23T04:32:44.684Z,-3.26
2019-01-23T04:35:48.582Z,-3.21
2019-01-23T04:38:52.517Z,-3.27
2019-01-23T04:41:56.546Z,-3.30
2019-01-23T04:45:00.456Z,-3.19
2019-01-23T04:48:04.600Z,-3.14
2019-01-23T04:51:30.353Z,-3.34
2019-01-23T04:54:34.290Z,-3.26
2019-01-23T04:57:38.239Z,-3.35
2019-01-23T05:00:42.271Z,-3.26
2019-01-23T05:03:46.181Z,-3.33
2019-01-23T05:06:50.214Z,-3.37
2019-01-23T05:09:54.138Z,-3.41
2019-01-23T05:12:58.096Z,-3.40
2019-01-23T05:16:05.152Z,-3.45
2019-01-23T05:19:09.095Z,-3.46
2019-01-23T05:22:13.088Z,-3.38
2019-01-23T05:25:18.449Z,-3.41
2019-01-23T05:28:22.372Z,-3.47
2019-01-23T05:31:26.329Z,-3.56
2019-01-23T05:34:30.289Z,-3.54
2019-01-23T05:37:34.301Z,-3.57
2019-01-23T05:40:38.528Z,-3.56
2019-01-23T05:43:42.521Z,-3.49
2019-01-23T05:46:46.562Z,-3.51
2019-01-23T05:49:50.449Z,-3.49
2019-01-23T05:52:54.876Z,-3.50
2019-01-23T05:55:58.845Z,-3.50
2019-01-23T05:59:02.717Z,-3.54
2019-01-23T06:02:06.846Z,-3.51
2019-01-23T06:05:13.658Z,-3.50
2019-01-23T06:08:20.725Z,-3.47
2019-01-23T06:11:24.535Z,-3.48
2019-01-23T06:14:28.421Z,-3.51
2019-01-23T06:17:37.814Z,-3.51
2019-01-23T06:20:41.813Z,-3.45
2019-01-23T06:23:45.763Z,-3.44
2019-01-23T06:26:49.767Z,-3.45
2019-01-23T06:29:53.722Z,-3.44
2019-01-23T06:32:57.713Z,-3.49
2019-01-23T06:36:01.734Z,-3.49
2019-01-23T06:39:08.288Z,-3.45
2019-01-23T06:42:12.337Z,-3.44
2019-01-23T06:45:17.282Z,-3.39
2019-01-23T06:48:21.191Z,-3.41
2019-01-23T06:51:25.052Z,-3.38
2019-01-23T06:54:28.922Z,-3.38
2019-01-23T06:57:32.870Z,-3.40
2019-01-23T07:00:36.809Z,-3.40
2019-01-23T07:03:40.761Z,-3.38
2019-01-23T07:06:44.712Z,-3.40
2019-01-23T07:09:48.666Z,-3.44
2019-01-23T07:12:52.704Z,-3.46
2019-01-23T07:15:56.790Z,-3.57
2019-01-23T07:19:00.814Z,-3.57
2019-01-23T07:22:04.822Z,-3.60
2019-01-23T07:25:09.161Z,-3.51
2019-01-23T07:28:13.283Z,-3.59
2019-01-23T07:31:17.305Z,-3.54
2019-01-23T07:34:21.263Z,-3.56
2019-01-23T07:37:25.297Z,-3.61
2019-01-23T07:40:31.937Z,-3.64
2019-01-23T07:43:35.805Z,-3.66
2019-01-23T07:46:39.843Z,-3.66
2019-01-23T07:49:43.889Z,-3.63
2019-01-23T07:52:47.989Z,-3.59
2019-01-23T07:55:52.083Z,-3.55
2019-01-23T07:58:56.031Z,-3.52
2019-01-23T08:02:01.951Z,-3.41
2019-01-23T08:05:07.398Z,-3.33
2019-01-23T08:08:11.432Z,-3.26
2019-01-23T08:11:15.412Z,-3.18
2019-01-23T08:14:19.424Z,-3.05
2019-01-23T08:17:23.375Z,-2.95
2019-01-23T08:20:27.603Z,-2.93
2019-01-23T08:23:31.580Z,-2.91
2019-01-23T08:26:35.522Z,-2.78
2019-01-23T08:29:39.459Z,-2.80
2019-01-23T08:32:43.503Z,-2.75
2019-01-23T08:35:47.574Z,-2.64
2019-01-23T08:38:51.582Z,-2.56
2019-01-23T08:41:55.536Z,-2.50
2019-01-23T08:44:59.513Z,-2.71
2019-01-23T08:48:06.326Z,-2.60
2019-01-23T08:51:10.311Z,-2.64
2019-01-23T08:54:14.192Z,-2.62
2019-01-23T08:57:18.227Z,-2.60
2019-01-23T09:00:22.256Z,-2.49
2019-01-23T09:03:26.198Z,-2.54
2019-01-23T09:06:30.208Z,-2.53
2019-01-23T09:09:34.086Z,-2.42
2019-01-23T09:12:38.029Z,-2.31
2019-01-23T09:15:41.994Z,-2.33
2019-01-23T09:18:48.742Z,-2.33
2019-01-23T09:21:52.691Z,-2.31
2019-01-23T09:24:56.591Z,-2.19
2019-01-23T09:28:00.548Z,-2.25
2019-01-23T09:31:33.693Z,-2.06
2019-01-23T09:35:03.090Z,-2.03
2019-01-23T09:38:39.900Z,-2.04
2019-01-23T09:42:15.286Z,-1.99
2019-01-23T09:45:50.231Z,-1.85
2019-01-23T09:49:24.488Z,-1.81
2019-01-23T09:53:05.291Z,-1.88
2019-01-23T09:56:09.597Z,-1.85
2019-01-23T09:59:13.591Z,-1.96
2019-01-23T10:02:17.561Z,-2.05
2019-01-23T10:05:21.517Z,-2.10
2019-01-23T10:08:25.388Z,-2.14
2019-01-23T10:11:29.286Z,-2.22
2019-01-23T10:14:33.342Z,-2.33
2019-01-23T10:17:37.523Z,-2.14
2019-01-23T10:20:41.604Z,-2.20
2019-01-23T10:23:47.302Z,-2.22
2019-01-23T10:26:51.249Z,-2.13
2019-01-23T10:29:55.584Z,-2.20
2019-01-23T10:32:59.455Z,-2.23
2019-01-23T10:36:03.534Z,-2.13
2019-01-23T10:39:09.326Z,-2.17
2019-01-23T10:42:13.360Z,-1.94
2019-01-23T10:45:17.702Z,-1.99
2019-01-23T10:48:21.719Z,-1.85
2019-01-23T10:51:25.685Z,-1.93
2019-01-23T10:54:29.665Z,-1.99
2019-01-23T10:57:33.750Z,-2.00
2019-01-23T11:00:39.308Z,-1.89
2019-01-23T11:03:43.506Z,-1.65
2019-01-23T11:06:47.535Z,-1.74
2019-01-23T11:09:51.568Z,-1.63
2019-01-23T11:12:55.601Z,-1.63
2019-01-23T11:15:59.546Z,-1.74
2019-01-23T11:19:03.711Z,-1.65
2019-01-23T11:22:07.647Z,-1.69
2019-01-23T11:25:14.836Z,-1.50
2019-01-23T11:28:18.800Z,-1.57
2019-01-23T11:31:24.913Z,-1.55
2019-01-23T11:34:30.433Z,-1.51
2019-01-23T11:37:37.162Z,-1.51
2019-01-23T11:40:41.262Z,-1.39
2019-01-23T11:43:45.340Z,-1.43
2019-01-23T11:46:49.591Z,-1.34
2019-01-23T11:49:53.602Z,-1.56
2019-01-23T11:52:57.613Z,-1.56
2019-01-23T11:56:03.163Z,-1.47
2019-01-23T11:59:07.436Z,-1.34
2019-01-23T12:02:11.883Z,-1.35
2019-01-23T12:05:21.492Z,-1.43
2019-01-23T12:08:27.708Z,-1.27
2019-01-23T12:11:32.957Z,-1.26
2019-01-23T12:14:36.985Z,-1.20
2019-01-23T12:17:41.189Z,-1.06
2019-01-23T12:20:45.333Z,-1.04
2019-01-23T12:23:58.046Z,-0.89
2019-01-23T12:26:55.035Z,-0.85
2019-01-23T12:29:59.076Z,-0.82
2019-01-23T12:33:23.516Z,-0.76
2019-01-23T12:36:27.562Z,-0.79
2019-01-23T12:39:31.617Z,-0.73
2019-01-23T12:42:35.656Z,-0.71
2019-01-23T12:45:39.697Z,-0.59
2019-01-23T12:48:43.748Z,-0.62
2019-01-23T12:51:47.735Z,-0.65
2019-01-23T12:54:51.683Z,-0.56
2019-01-23T12:57:55.763Z,-0.54
2019-01-23T13:00:59.951Z,-0.62
2019-01-23T13:04:04.295Z,-0.41
2019-01-23T13:07:07.701Z,-0.44
2019-01-23T13:10:15.043Z,-0.65
2019-01-23T13:13:19.343Z,-0.74
2019-01-23T13:16:23.347Z,-0.76
2019-01-23T13:19:27.415Z,-0.74
2019-01-23T13:22:31.321Z,-0.64
2019-01-23T13:25:37.269Z,-0.66
2019-01-23T13:28:41.453Z,-0.70
2019-01-23T13:31:49.171Z,-0.49
2019-01-23T13:34:51.327Z,-0.60
2019-01-23T13:37:55.694Z,-0.45
2019-01-23T13:40:59.659Z,-0.51
2019-01-23T13:44:03.701Z,-0.58
2019-01-23T13:47:07.750Z,-0.59
2019-01-23T13:50:12.046Z,-0.40
2019-01-23T13:53:16.084Z,-0.51
2019-01-23T13:56:20.098Z,-0.51
2019-01-23T13:59:24.256Z,-0.55
2019-01-23T14:02:28.389Z,-0.62
2019-01-23T14:05:32.416Z,-0.44
2019-01-23T14:08:36.414Z,-0.60
2019-01-23T14:11:40.766Z,-0.73
2019-01-23T14:14:44.742Z,-0.75
2019-01-23T14:17:48.724Z,-0.78
2019-01-23T14:20:52.713Z,-0.82
2019-01-23T14:23:56.849Z,-0.82
2019-01-23T14:27:00.911Z,-0.81
2019-01-23T14:30:06.831Z,-0.83
2019-01-23T14:33:10.869Z,-0.77
2019-01-23T14:36:17.014Z,-0.91
2019-01-23T14:39:21.058Z,-0.77
2019-01-23T14:42:25.082Z,-0.92
2019-01-23T14:45:29.160Z,-0.86
2019-01-23T14:48:33.124Z,-0.98
2019-01-23T14:51:37.151Z,-1.00
2019-01-23T14:54:41.188Z,-0.93
2019-01-23T14:57:45.508Z,-1.00
2019-01-23T15:00:49.449Z,-1.03
2019-01-23T15:03:53.390Z,-1.00
2019-01-23T15:07:00.234Z,-1.03
2019-01-23T15:10:05.181Z,-1.16
2019-01-23T15:13:09.150Z,-1.19
2019-01-23T15:16:13.174Z,-1.17
2019-01-23T15:19:17.221Z,-1.24
2019-01-23T15:22:21.181Z,-1.28
2019-01-23T15:25:25.236Z,-1.30
2019-01-23T15:28:31.758Z,-1.35
2019-01-23T15:31:35.784Z,-1.36
2019-01-23T15:34:39.972Z,-1.42
2019-01-23T15:37:45.512Z,-1.46
2019-01-23T15:40:49.602Z,-1.49
2019-01-23T15:43:53.552Z,-1.54
2019-01-23T15:46:57.605Z,-1.51
2019-01-23T15:50:01.610Z,-1.53
2019-01-23T15:53:05.575Z,-1.55
2019-01-23T15:56:09.684Z,-1.57
2019-01-23T15:59:13.777Z,-1.61
2019-01-23T16:02:24.133Z,-1.52
2019-01-23T16:05:23.702Z,-1.45
2019-01-23T16:08:27.701Z,-1.38
2019-01-23T16:11:32.217Z,-1.48
2019-01-23T16:14:36.162Z,-1.52
2019-01-23T16:17:40.159Z,-1.53
2019-01-23T16:20:44.192Z,-1.57
2019-01-23T16:23:48.085Z,-1.58
2019-01-23T16:26:52.047Z,-1.61
2019-01-23T16:29:56.020Z,-1.63
2019-01-23T16:33:00.060Z,-1.65
2019-01-23T16:36:04.443Z,-1.59
2019-01-23T16:39:09.187Z,-1.63
2019-01-23T16:42:13.276Z,-1.68
2019-01-23T16:45:18.314Z,-1.72
2019-01-23T16:48:22.253Z,-1.76
2019-01-23T16:51:26.155Z,-1.74
2019-01-23T16:54:30.101Z,-1.78
2019-01-23T16:57:34.004Z,-1.73
2019-01-23T17:00:38.406Z,-1.75
2019-01-23T17:03:42.587Z,-1.75
2019-01-23T17:06:46.609Z,-1.76
2019-01-23T17:09:50.650Z,-1.74
2019-01-23T17:12:54.612Z,-1.74
2019-01-23T17:15:58.566Z,-1.78
2019-01-23T17:19:02.615Z,-1.77
2019-01-23T17:22:06.733Z,-1.77
2019-01-23T17:25:11.564Z,-1.74
2019-01-23T17:28:16.827Z,-1.74
2019-01-23T17:31:20.992Z,-1.76
2019-01-23T17:34:25.194Z,-1.77
2019-01-23T17:37:29.066Z,-1.77
2019-01-23T17:40:33.333Z,-1.75
2019-01-23T17:43:38.445Z,-1.77
2019-01-23T17:46:43.096Z,-1.78
2019-01-23T17:49:47.004Z,-1.82
2019-01-23T17:52:51.281Z,-1.84
2019-01-23T17:55:58.168Z,-1.89
2019-01-23T17:59:02.649Z,-1.90
2019-01-23T18:02:07.204Z,-1.91
2019-01-23T18:05:11.271Z,-1.93
2019-01-23T18:08:15.413Z,-1.97
2019-01-23T18:11:19.455Z,-2.01
2019-01-23T18:14:23.624Z,-2.03
2019-01-23T18:17:27.577Z,-2.03
2019-01-23T18:20:31.604Z,-2.04
2019-01-23T18:23:35.650Z,-2.03
2019-01-23T18:26:39.693Z,-2.01
2019-01-23T18:29:43.843Z,-2.05
2019-01-23T18:32:48.371Z,-2.08
2019-01-23T18:36:33.717Z,-2.08
2019-01-23T18:39:55.633Z,-2.10
2019-01-23T18:43:58.160Z,-2.10
2019-01-23T18:47:41.430Z,-2.06
2019-01-23T18:51:05.724Z,-2.08
2019-01-23T18:54:10.016Z,-2.07
2019-01-23T18:57:17.300Z,-2.05
2019-01-23T19:00:22.001Z,-2.02
2019-01-23T19:03:26.398Z,-1.88
2019-01-23T19:06:30.475Z,-1.87
2019-01-23T19:09:34.640Z,-1.81
2019-01-23T19:12:38.673Z,-1.81
2019-01-23T19:15:42.631Z,-1.76
2019-01-23T19:18:46.671Z,-1.65
2019-01-23T19:21:55.055Z,-1.46
2019-01-23T19:24:56.395Z,-1.48
2019-01-23T19:28:00.360Z,-1.44
2019-01-23T19:31:04.655Z,-1.38
2019-01-23T19:34:08.742Z,-1.31
2019-01-23T19:37:12.814Z,-1.09
2019-01-23T19:40:17.008Z,-0.90
2019-01-23T19:43:21.116Z,-0.81
2019-01-23T19:46:25.397Z,-0.90
2019-01-23T19:49:29.309Z,-0.83
2019-01-23T19:52:33.358Z,-0.87
2019-01-23T19:55:37.430Z,-0.81
2019-01-23T19:58:41.426Z,-0.80
2019-01-23T20:01:48.532Z,-0.88
2019-01-23T20:04:52.536Z,-0.97
2019-01-23T20:07:56.599Z,-1.01
2019-01-23T20:11:00.653Z,-1.07
2019-01-23T20:14:05.117Z,-1.20
2019-01-23T20:17:10.493Z,-1.63
2019-01-23T20:20:14.790Z,-2.15
2019-01-23T20:23:18.827Z,-2.28
2019-01-23T20:26:22.866Z,-2.31
2019-01-23T20:29:26.964Z,-2.27
2019-01-23T20:32:31.230Z,-2.24
2019-01-23T20:35:35.324Z,-2.21
2019-01-23T20:38:39.217Z,-2.20
2019-01-23T20:41:43.147Z,-2.17
2019-01-23T20:44:47.150Z,-2.15
2019-01-23T20:47:51.302Z,-2.19
2019-01-23T20:50:55.380Z,-2.25
2019-01-23T20:53:59.352Z,-2.27
2019-01-23T20:57:03.312Z,-2.30
2019-01-23T21:00:14.148Z,-2.30
2019-01-23T21:03:19.802Z,-2.26
2019-01-23T21:06:23.886Z,-2.25
2019-01-23T21:09:27.922Z,-2.31
2019-01-23T21:12:31.888Z,-2.40
2019-01-23T21:15:36.054Z,-2.44
2019-01-23T21:18:40.108Z,-2.45
2019-01-23T21:21:45.810Z,-2.53
2019-01-23T21:24:49.816Z,-2.56
2019-01-23T21:27:53.772Z,-2.56
2019-01-23T21:30:57.629Z,-2.59
2019-01-23T21:34:01.549Z,-2.62
2019-01-23T21:37:05.784Z,-2.63
2019-01-23T21:40:13.786Z,-2.63
2019-01-23T21:43:17.961Z,-2.61
2019-01-23T21:46:23.521Z,-2.59
2019-01-23T21:49:29.325Z,-2.52
2019-01-23T21:52:33.301Z,-2.48
2019-01-23T21:55:37.255Z,-2.47
2019-01-23T21:58:41.428Z,-2.45
2019-01-23T22:01:45.494Z,-2.49
2019-01-23T22:04:49.459Z,-2.50
2019-01-23T22:07:53.839Z,-2.49
2019-01-23T22:10:57.791Z,-2.52
2019-01-23T22:14:01.847Z,-2.54
2019-01-23T22:17:07.085Z,-2.57
2019-01-23T22:20:13.865Z,-2.58
2019-01-23T22:23:17.814Z,-2.59
2019-01-23T22:26:21.775Z,-2.65
2019-01-23T22:29:25.657Z,-2.67
2019-01-23T22:32:29.608Z,-2.73
2019-01-23T22:35:33.589Z,-2.74
2019-01-23T22:38:37.556Z,-2.74
2019-01-23T22:41:41.468Z,-2.80
2019-01-23T22:44:45.330Z,-2.84
2019-01-23T22:47:49.374Z,-2.87
2019-01-23T22:50:53.259Z,-2.93
2019-01-23T22:53:57.131Z,-2.96
2019-01-23T22:57:01.085Z,-2.97
2019-01-23T23:00:14.644Z,-2.99
2019-01-23T23:03:20.527Z,-3.02
2019-01-23T23:06:24.484Z,-3.05
2019-01-23T23:09:28.677Z,-3.17
2019-01-23T23:12:32.654Z,-3.22
2019-01-23T23:15:36.810Z,-3.21
2019-01-23T23:18:40.720Z,-3.12
2019-01-23T23:21:45.959Z,-3.16
2019-01-23T23:24:50.188Z,-3.17
2019-01-23T23:27:54.220Z,-3.19
2019-01-23T23:30:58.244Z,-3.18
2019-01-23T23:34:02.240Z,-3.20
2019-01-23T23:37:06.290Z,-3.23
2019-01-23T23:40:19.497Z,-3.23
2019-01-23T23:43:33.492Z,-3.18
2019-01-23T23:46:46.674Z,-3.21
2019-01-23T23:49:51.360Z,-3.16
2019-01-23T23:52:58.284Z,-3.10
2019-01-23T23:56:03.334Z,-3.05
2019-01-23T23:59:07.296Z,-2.98
